Island Pond, VT

7:59 PM EDT on October 22, 2014 (GMT -0400)
Island Pond | Change Station
CLOSE
Current Station
Personal Weather Station
Location: Brighton, VT
Elevation: 1204 ft
Nearby Weather Stations

Elev 1204 ft 44.81 °N, 71.86 °W | Updated 1 second ago

Mostly Cloudy
Mostly Cloudy
46.5 °F
Feels Like 46 °F
N
0.0
Wind Variable Wind from SSE
Gusts 7.0 mph

Today
High -- | Low -- °F
--% Chance of Precip.
Yesterday
High -- | Low -- °F
Precip. -- in
7:11 AM 5:51 PM
Waning Crescent, 1% visible
Pressure 30.12 in
Visibility 10.0 miles
Clouds Mostly Cloudy 3000 ft
Mostly Cloudy 3500 ft
Overcast 9000 ft
Windchill 46 °F
Dew Point 42 °F
Humidity 83%
Rainfall 0.14 in
Snow Depth Not available.
UV 0 out of 12
Pollen .10 out of 12
Ozone Good
PM2.5 Good
Flu Activity Sporadic
METAR KCDA 222335Z AUTO 34014G19KT 10SM BKN030 BKN035 OVC090 09/04 A3012 RMK AO2 T00910037

More Conditions Fewer Conditions

Pressure 30.12 in
Visibility 10.0 miles
Clouds Mostly Cloudy 3000 ft
Mostly Cloudy 3500 ft
Overcast 9000 ft
Windchill 46 °F
Dew Point 42 °F
Humidity 83%
Rainfall 0.14 in
Snow Depth Not available.
UV 0 out of 12
Pollen .10 out of 12
Ozone Good
PM2.5 Good
Flu Activity Sporadic
METAR KCDA 222335Z AUTO 34014G19KT 10SM BKN030 BKN035 OVC090 09/04 A3012 RMK AO2 T00910037

More Conditions Fewer Conditions

10-Day Weather Forecast

Almanac

Astronomy

Oct. 22, 2014 Rise Set
Actual Time 7:11 AM EDT 5:51 PM EDT
Civil Twilight 6:42 AM EDT 6:20 PM EDT
Nautical Twilight 6:08 AM EDT 6:54 PM EDT
Astronomical Twilight 5:34 AM EDT 7:28 PM EDT
Moon 5:47 AM EDT 5:18 PM EDT
Length of Visible Light 11h 38m
Length of Day
10h 39m
Tomorrow will be 2m 56s shorter.
Waning Crescent, 1% of the Moon is Illuminated
Today
Waning Crescent
Oct 23
New
Oct 30
First Quarter
Nov 6
Full
Nov 14
Last Quarter

Today's Extremes

State Highs State Lows

Community

WunderPhotos

Upload Photos

1,764,080 photos uploaded!

WunderBlogs® & News

Nearby

Air Quality

  Air Quality AQ Index Pollutant
Yesterday Good
PM2.5
Yesterday Good
OZONE
Current Good
PM2.5
Current Good
OZONE
Wednesday Good
PM2.5
Thursday Good
PM2.5

Snow Depth

Station Depth Elevation
No new snow has been reported.

Earthquake Activity

City Distance Mag. Time & Date
No recent earthquake activity has been reported nearby.
Minimum magnitude displayed is 2.5.

Coastal Water Temperatures

Place Temperature
No Stations Reporting

Nearby Weather Stations